Time;durP1;ratioP1;P1;durP2;ratioP2;P2;SDS_P1;SDS_P2;PMS_P1;PMS_P2;Temp;Humidity;BMP_temperature;BMP_pressure;BME280_temperature;BME280_humidity;BME280_pressure;Samples;Min_cycle;Max_cycle;Signal;HPM_P1;HPM_P2
2023/09/18 00:01:24;;;;;;;15.70;13.00;;;;;;;;;;6332821;22;20481;-87
2023/09/18 00:03:51;;;;;;;13.33;12.03;;;;;;;;;;6335501;22;20388;-88
2023/09/18 00:06:23;;;;;;;13.17;11.87;;;18.80;99.90;;;;;;6331725;22;20411;-88
2023/09/18 00:08:51;;;;;;;14.97;13.33;;;;;;;;;;6321323;22;20407;-87
2023/09/18 00:11:18;;;;;;;14.17;12.87;;;;;;;;;;6319959;22;20407;-88
2023/09/18 00:13:50;;;;;;;14.33;12.93;;;;;;;;;;6319156;22;20752;-89
2023/09/18 00:16:18;;;;;;;13.87;12.47;;;;;;;;;;6326644;22;20376;-89
2023/09/18 00:18:45;;;;;;;14.07;12.60;;;18.90;99.90;;;;;;6332885;22;20434;-88
2023/09/18 00:21:12;;;;;;;12.30;11.20;;;;;;;;;;6325023;22;20400;-88
2023/09/18 00:23:41;;;;;;;15.47;13.00;;;18.80;86.40;;;;;;6317945;22;20760;-88
2023/09/18 00:26:08;;;;;;;16.50;13.50;;;;;;;;;;6315938;22;20730;-89
2023/09/18 00:28:35;;;;;;;13.17;11.97;;;;;;;;;;6316127;22;20813;-88
2023/09/18 00:31:03;;;;;;;13.40;12.27;;;;;;;;;;6318906;22;20399;-88
2023/09/18 00:33:29;;;;;;;13.03;11.80;;;18.80;99.90;;;;;;6333761;22;20462;-88
2023/09/18 00:35:56;;;;;;;13.50;11.20;;;19.70;99.90;;;;;;6333352;22;20392;-88
2023/09/18 00:38:23;;;;;;;13.33;12.07;;;18.80;12.10;;;;;;6329929;22;20429;-89
2023/09/18 00:40:52;;;;;;;12.47;11.27;;;;;;;;;;6320113;22;20570;-88
2023/09/18 00:43:20;;;;;;;14.83;12.50;;;;;;;;;;6328713;22;20426;-88
2023/09/18 00:45:49;;;;;;;13.60;11.33;;;18.60;1.00;;;;;;6326568;22;20430;-88
2023/09/18 00:48:17;;;;;;;18.00;11.90;;;18.70;1.00;;;;;;6316931;22;20467;-89
2023/09/18 00:50:46;;;;;;;12.17;11.00;;;18.70;99.90;;;;;;6317054;22;20489;-88
2023/09/18 00:53:16;;;;;;;13.80;12.50;;;18.70;99.90;;;;;;6328340;22;20403;-88
2023/09/18 00:55:44;;;;;;;11.80;10.70;;;;;;;;;;6325516;22;20380;-88
2023/09/18 00:58:13;;;;;;;14.13;12.87;;;18.70;99.90;;;;;;6328826;22;20410;-88
2023/09/18 01:00:40;;;;;;;12.07;10.93;;;;;;;;;;6330979;22;20430;-87
2023/09/18 01:03:08;;;;;;;12.20;11.00;;;;;;;;;;6324210;22;20397;-88
2023/09/18 01:05:38;;;;;;;13.67;12.27;;;;;;;;;;6326385;22;20419;-87
2023/09/18 01:08:06;;;;;;;12.50;11.30;;;;;;;;;;6324225;22;20411;-89
2023/09/18 01:10:40;;;;;;;13.17;11.90;;;18.60;99.90;;;;;;6324361;22;20389;-89
2023/09/18 01:13:15;;;;;;;13.40;10.73;;;18.60;99.90;;;;;;6325494;22;20451;-86
2023/09/18 01:15:49;;;;;;;13.03;11.73;;;18.60;99.90;;;;;;6326123;22;20398;-88
2023/09/18 01:18:18;;;;;;;11.30;10.00;;;;;;;;;;6318968;22;20916;-88
2023/09/18 01:20:45;;;;;;;12.40;11.30;;;;;;;;;;6316595;22;20407;-88
2023/09/18 01:23:16;;;;;;;12.70;11.40;;;;;;;;;;6317419;22;20394;-87
2023/09/18 01:25:43;;;;;;;11.53;10.53;;;;;;;;;;6316250;22;20921;-88
2023/09/18 01:28:10;;;;;;;13.07;11.87;;;;;;;;;;6316026;22;20418;-87
2023/09/18 01:30:38;;;;;;;12.63;11.40;;;18.40;1.00;;;;;;6316003;22;20407;-87
2023/09/18 01:33:05;;;;;;;12.60;11.40;;;18.50;1.00;;;;;;6317264;22;20409;-88
2023/09/18 01:35:34;;;;;;;12.63;10.10;;;18.40;99.90;;;;;;6316920;22;20446;-87
2023/09/18 01:38:03;;;;;;;11.33;10.40;;;;;;;;;;6316899;22;20423;-88
2023/09/18 01:40:32;;;;;;;10.80;9.80;;;18.50;99.90;;;;;;6315049;22;20491;-87
2023/09/18 01:42:59;;;;;;;11.33;10.33;;;;;;;;;;6315849;22;20402;-88
2023/09/18 01:45:26;;;;;;;12.30;11.30;;;18.50;99.90;;;;;;6315938;22;20403;-87
2023/09/18 01:47:54;;;;;;;11.93;10.90;;;;;;;;;;6325483;22;20493;-87
2023/09/18 01:50:21;;;;;;;11.33;10.37;;;;;;;;;;6324176;22;20401;-88
2023/09/18 01:52:48;;;;;;;11.30;10.33;;;;;;;;;;6318137;22;20409;-88
2023/09/18 01:55:15;;;;;;;11.13;10.13;;;18.30;99.90;;;;;;6326276;22;20437;-88
2023/09/18 01:57:43;;;;;;;11.50;9.90;;;18.30;1.00;;;;;;6333850;22;20435;-87
2023/09/18 02:00:11;;;;;;;12.30;11.10;;;18.30;1.00;;;;;;6325011;22;20414;-88
2023/09/18 02:02:39;;;;;;;10.87;9.97;;;18.30;1.00;;;;;;6316956;22;20406;-87
2023/09/18 02:05:06;;;;;;;10.70;9.80;;;17.90;99.90;;;;;;6315031;22;20523;-87
2023/09/18 02:07:34;;;;;;;10.27;9.37;;;;;;;;;;6318811;22;20413;-87
2023/09/18 02:10:00;;;;;;;11.97;10.87;;;17.90;99.90;;;;;;6336896;22;20406;-86
2023/09/18 02:12:27;;;;;;;11.40;10.30;;;18.20;1.00;;;;;;6333124;22;20415;-87
2023/09/18 02:14:57;;;;;;;11.23;10.23;;;18.40;1.00;;;;;;6336297;22;20432;-87
2023/09/18 02:17:24;;;;;;;11.90;10.80;;;18.20;99.90;;;;;;6334871;22;20438;-87
2023/09/18 02:19:51;;;;;;;10.73;9.83;;;18.10;1.00;;;;;;6326560;22;20429;-87
2023/09/18 02:22:18;;;;;;;12.87;11.57;;;17.80;1.00;;;;;;6335937;22;20398;-85
2023/09/18 02:24:45;;;;;;;11.57;10.47;;;17.90;99.90;;;;;;6325434;22;20429;-88
2023/09/18 02:27:12;;;;;;;11.00;10.00;;;18.10;99.90;;;;;;6319206;22;20463;-88
2023/09/18 02:29:38;;;;;;;11.33;9.97;;;18.10;99.90;;;;;;6316397;22;20414;-88
2023/09/18 02:32:07;;;;;;;11.70;10.60;;;;;;;;;;6316595;22;20430;-88
2023/09/18 02:34:34;;;;;;;12.00;10.70;;;;;;;;;;6314990;22;20449;-88
2023/09/18 02:37:01;;;;;;;12.10;11.00;;;;;;;;;;6315686;22;20840;-88
2023/09/18 02:39:29;;;;;;;11.30;10.20;;;;;;;;;;6315244;22;20463;-88
2023/09/18 02:41:58;;;;;;;12.67;11.43;;;;;;;;;;6314367;22;20736;-88
2023/09/18 02:44:25;;;;;;;13.93;10.57;;;;;;;;;;6314494;22;20395;-88
2023/09/18 02:46:52;;;;;;;13.00;11.80;;;;;;;;;;6315895;22;20454;-88
2023/09/18 02:49:21;;;;;;;11.77;10.73;;;;;;;;;;6318703;22;20397;-88
2023/09/18 02:51:49;;;;;;;11.97;10.30;;;;;;;;;;6325188;22;20409;-87
2023/09/18 02:54:18;;;;;;;12.50;11.10;;;;;;;;;;6317765;22;20446;-88
2023/09/18 02:56:45;;;;;;;13.23;11.93;;;;;;;;;;6315485;22;20459;-87
2023/09/18 02:59:12;;;;;;;11.40;10.40;;;17.60;1.00;;;;;;6316224;22;20507;-88
2023/09/18 03:01:39;;;;;;;12.20;10.93;;;;;;;;;;6318156;22;20473;-88
2023/09/18 03:04:07;;;;;;;11.47;10.47;;;17.80;99.90;;;;;;6324450;22;20406;-88
2023/09/18 03:06:35;;;;;;;11.07;9.97;;;;;;;;;;6333112;22;20400;-87
2023/09/18 03:09:02;;;;;;;12.17;10.97;;;;;;;;;;6335877;22;20477;-86
2023/09/18 03:11:29;;;;;;;10.90;9.90;;;17.50;27.60;;;;;;6335083;22;20431;-87
2023/09/18 03:13:56;;;;;;;12.53;11.37;;;17.70;1.00;;;;;;6335234;22;20381;-87
2023/09/18 03:16:23;;;;;;;12.33;11.13;;;;;;;;;;6332811;22;20405;-88
2023/09/18 03:18:50;;;;;;;12.30;11.03;;;;;;;;;;6330658;22;20427;-87
2023/09/18 03:21:17;;;;;;;11.50;10.43;;;17.70;1.00;;;;;;6316711;22;20440;-87
2023/09/18 03:23:45;;;;;;;10.97;9.97;;;17.70;1.00;;;;;;6317603;22;20428;-87
2023/09/18 03:26:12;;;;;;;11.53;10.37;;;17.60;1.00;;;;;;6315933;22;20430;-88
2023/09/18 03:28:39;;;;;;;12.93;11.63;;;17.60;1.00;;;;;;6315099;22;20465;-88
2023/09/18 03:31:06;;;;;;;11.13;10.03;;;;;;;;;;6315613;22;20779;-88
2023/09/18 03:33:33;;;;;;;12.93;10.40;;;17.60;1.00;;;;;;6314917;22;20403;-89
2023/09/18 03:36:00;;;;;;;12.73;11.63;;;17.60;23.00;;;;;;6317969;22;20444;-87
2023/09/18 03:38:27;;;;;;;13.03;9.87;;;17.60;51.70;;;;;;6328836;22;20457;-87
2023/09/18 03:40:55;;;;;;;11.90;10.80;;;17.50;1.00;;;;;;6326204;22;20440;-88
2023/09/18 03:43:22;;;;;;;10.90;10.00;;;17.60;99.90;;;;;;6324067;22;20396;-87
2023/09/18 03:45:49;;;;;;;11.73;10.67;;;17.60;99.90;;;;;;6323801;22;20404;-87
2023/09/18 03:48:15;;;;;;;12.10;10.87;;;17.50;99.90;;;;;;6315505;22;20462;-87
2023/09/18 03:50:43;;;;;;;12.40;10.80;;;;;;;;;;6314119;22;20492;-88
2023/09/18 03:53:10;;;;;;;12.00;10.93;;;;;;;;;;6314594;22;20409;-89
2023/09/18 03:55:37;;;;;;;12.60;11.40;;;17.50;99.90;;;;;;6315185;22;20465;-87
2023/09/18 03:58:06;;;;;;;11.07;10.07;;;;;;;;;;6314650;22;20414;-88
2023/09/18 04:00:33;;;;;;;11.50;10.60;;;;;;;;;;6316483;22;20409;-88
2023/09/18 04:03:01;;;;;;;11.87;10.37;;;;;;;;;;6314869;22;20971;-89
2023/09/18 04:05:28;;;;;;;13.43;11.80;;;;;;;;;;6314662;22;20400;-88
2023/09/18 04:07:55;;;;;;;12.50;11.07;;;;;;;;;;6313641;22;20443;-88
2023/09/18 04:10:23;;;;;;;10.87;9.87;;;;;;;;;;6313774;22;20483;-88
2023/09/18 04:12:51;;;;;;;10.90;9.90;;;;;;;;;;6313624;22;20466;-88
2023/09/18 04:15:22;;;;;;;12.23;11.03;;;;;;;;;;6314643;22;21001;-89
2023/09/18 04:17:49;;;;;;;13.00;10.50;;;;;;;;;;6315531;22;20798;-88
2023/09/18 04:20:19;;;;;;;13.60;11.37;;;;;;;;;;6314394;22;20941;-89
2023/09/18 04:22:49;;;;;;;12.53;11.33;;;17.50;99.90;;;;;;6315931;22;20402;-87
2023/09/18 04:25:16;;;;;;;11.53;10.57;;;;;;;;;;6315468;22;20449;-88
2023/09/18 04:27:49;;;;;;;13.03;11.73;;;;;;;;;;6317066;22;20409;-88
2023/09/18 04:30:19;;;;;;;13.07;11.53;;;;;;;;;;6324946;22;20389;-86
2023/09/18 04:32:48;;;;;;;13.63;11.07;;;;;;;;;;6330094;22;20884;-88
2023/09/18 04:35:18;;;;;;;12.67;11.47;;;17.40;1.00;;;;;;6335547;22;20452;-88
2023/09/18 04:37:46;;;;;;;15.00;11.27;;;;;;;;;;6335178;22;20420;-88
2023/09/18 04:40:17;;;;;;;12.90;11.17;;;;;;;;;;6332124;22;20432;-88
2023/09/18 04:42:47;;;;;;;11.83;10.70;;;;;;;;;;6333897;22;20408;-87
2023/09/18 04:45:19;;;;;;;11.77;10.73;;;;;;;;;;6327425;22;20369;-87
2023/09/18 04:47:50;;;;;;;12.10;10.90;;;17.40;1.00;;;;;;6323104;22;20425;-88
2023/09/18 04:50:17;;;;;;;11.13;10.03;;;;;;;;;;6319390;22;20419;-88
2023/09/18 04:52:46;;;;;;;11.27;10.23;;;;;;;;;;6319002;22;20396;-88
2023/09/18 04:55:14;;;;;;;11.57;10.30;;;17.50;99.90;;;;;;6318468;22;20445;-88
2023/09/18 04:57:41;;;;;;;12.30;10.90;;;;;;;;;;6318731;22;20431;-87
2023/09/18 05:00:12;;;;;;;12.43;9.73;;;17.10;99.90;;;;;;6332950;22;20413;-86
2023/09/18 05:08:59;;;;;;;10.73;9.73;;;;;;;;;;6326413;22;20430;-89
2023/09/18 05:11:30;;;;;;;10.70;9.80;;;;;;;;;;6336364;22;20381;-89
2023/09/18 05:14:03;;;;;;;10.13;9.13;;;;;;;;;;6328509;22;20397;-89
2023/09/18 05:26:07;;;;;;;12.00;10.80;;;17.60;99.90;;;;;;6142497;23;20496;-89
2023/09/18 05:29:17;;;;;;;10.97;9.97;;;17.60;7.50;;;;;;6193738;23;21019;-89
2023/09/18 05:35:15;;;;;;;11.80;10.20;;;;;;;;;;6085309;23;20467;-89
2023/09/18 05:37:48;;;;;;;12.30;11.00;;;;;;;;;;6108162;23;20846;-90
2023/09/18 05:40:46;;;;;;;14.70;9.60;;;17.80;99.90;;;;;;6290945;22;20478;-89
2023/09/18 05:43:26;;;;;;;11.20;10.20;;;;;;;;;;6318856;22;20413;-91
2023/09/18 05:46:00;;;;;;;12.83;9.93;;;;;;;;;;6324860;22;20498;-89
2023/09/18 05:48:38;;;;;;;10.97;9.90;;;;;;;;;;6320648;22;20441;-90
2023/09/18 05:51:35;;;;;;;13.90;9.60;;;17.90;5.80;;;;;;6320777;22;20411;-91
2023/09/18 05:55:22;;;;;;;12.40;10.00;;;18.10;1.00;;;;;;6336371;22;20391;-88
2023/09/18 05:58:22;;;;;;;10.07;9.07;;;18.10;99.90;;;;;;6163271;23;20520;-88
2023/09/18 06:08:26;;;;;;;10.77;9.67;;;18.30;77.00;;;;;;6093163;23;20525;-89
2023/09/18 06:11:15;;;;;;;9.23;8.30;;;;;;;;;;6166637;23;20883;-89
2023/09/18 08:18:21;;;;;;;8.80;7.93;;;21.80;98.10;;;;;;6351263;22;20485;-90
2023/09/18 08:35:03;;;;;;;9.10;8.20;;;22.30;14.30;;;;;;6065711;23;20436;-91
2023/09/18 09:12:57;;;;;;;;;;;;;;;;;;;;;
2023/09/18 09:16:19;;;;;;;8.10;7.30;;;23.60;1.00;;;;;;6249006;22;20419;-91
2023/09/18 10:16:29;;;;;;;;;;;;;;;;;;;;;
2023/09/18 11:04:14;;;;;;;;;;;;;;;;;;;;;
2023/09/18 12:01:00;;;;;;;;;;;;;;;;;;;;;
2023/09/18 13:27:54;;;;;;;8.13;7.33;;;24.10;1.00;;;;;;6110420;23;20433;-91
2023/09/18 13:31:13;;;;;;;6.37;5.77;;;24.10;1.00;;;;;;6084447;23;20437;-90
2023/09/18 16:53:49;;;;;;;11.20;6.40;;;;;;;;;;6133261;23;20837;-89
2023/09/18 17:16:59;;;;;;;6.83;5.40;;;;;;;;;;6121771;23;20506;-90
2023/09/18 17:19:27;;;;;;;11.23;6.90;;;;;;;;;;6341520;22;20397;-90
2023/09/18 17:21:56;;;;;;;7.13;6.00;;;;;;;;;;6367087;22;20455;-90
2023/09/18 17:24:24;;;;;;;10.00;7.70;;;;;;;;;;6359756;22;20420;-91
2023/09/18 17:26:56;;;;;;;7.63;6.10;;;;;;;;;;6362849;22;20404;-92
2023/09/18 17:29:27;;;;;;;11.03;7.43;;;;;;;;;;6350661;22;20383;-90
2023/09/18 17:31:54;;;;;;;13.00;8.70;;;;;;;;;;6350390;22;20455;-90
2023/09/18 17:34:46;;;;;;;13.97;9.20;;;21.10;1.00;;;;;;6348402;22;20439;-90
2023/09/18 17:37:13;;;;;;;9.27;6.83;;;;;;;;;;6347979;22;20534;-90
2023/09/18 17:39:48;;;;;;;9.90;7.03;;;;;;;;;;6349492;22;20413;-91
2023/09/18 17:42:15;;;;;;;10.23;8.17;;;;;;;;;;6348093;22;20438;-90
2023/09/18 17:44:45;;;;;;;8.33;6.77;;;;;;;;;;6352915;22;20465;-90
2023/09/18 17:47:14;;;;;;;10.23;7.00;;;;;;;;;;6362679;22;20403;-89
2023/09/18 17:49:44;;;;;;;9.80;6.00;;;;;;;;;;6368007;22;20373;-90
2023/09/18 17:52:12;;;;;;;7.40;5.30;;;;;;;;;;6366916;22;20414;-91
2023/09/18 17:54:42;;;;;;;7.40;6.10;;;;;;;;;;6365505;22;20415;-91
2023/09/18 17:57:16;;;;;;;7.87;5.40;;;;;;;;;;6361346;22;20478;-91
2023/09/18 18:00:02;;;;;;;5.63;5.03;;;;;;;;;;6364486;22;20394;-91
2023/09/18 18:02:30;;;;;;;7.50;5.38;;;;;;;;;;6363791;22;20414;-91
2023/09/18 18:05:00;;;;;;;6.57;5.40;;;;;;;;;;6361088;22;20192;-91
2023/09/18 18:07:30;;;;;;;5.17;4.67;;;;;;;;;;6360480;22;20396;-90
2023/09/18 18:09:59;;;;;;;7.57;5.80;;;;;;;;;;6361119;22;20467;-91
2023/09/18 18:12:26;;;;;;;5.70;4.50;;;;;;;;;;6360886;22;20439;-92
2023/09/18 18:15:01;;;;;;;5.77;5.27;;;;;;;;;;6357806;22;20395;-91
2023/09/18 18:17:31;;;;;;;7.10;4.30;;;;;;;;;;6352328;22;20433;-89
2023/09/18 18:20:15;;;;;;;4.20;3.70;;;;;;;;;;6356667;22;20724;-90
2023/09/18 18:22:47;;;;;;;6.43;3.97;;;;;;;;;;6364860;22;20465;-91
2023/09/18 18:25:38;;;;;;;;;;;;;;;;;;;;;
2023/09/18 18:28:09;;;;;;;5.90;4.73;;;;;;;;;;6367566;22;20470;-90
2023/09/18 18:30:36;;;;;;;6.23;4.53;;;;;;;;;;6364755;22;20407;-91
2023/09/18 18:33:04;;;;;;;7.60;4.70;;;;;;;;;;6361387;22;20419;-90
2023/09/18 18:35:35;;;;;;;6.63;4.90;;;;;;;;;;6366692;22;20399;-90
2023/09/18 18:38:04;;;;;;;6.50;5.77;;;;;;;;;;6365103;22;20451;-90
2023/09/18 18:40:32;;;;;;;7.57;5.00;;;;;;;;;;6361259;22;20414;-90
2023/09/18 18:43:01;;;;;;;5.77;4.30;;;;;;;;;;6363778;22;20418;-91
2023/09/18 18:45:28;;;;;;;4.57;4.17;;;;;;;;;;6365113;22;20386;-90
2023/09/18 18:47:57;;;;;;;4.70;4.30;;;;;;;;;;6367011;22;20387;-91
2023/09/18 18:50:25;;;;;;;5.20;4.63;;;;;;;;;;6353800;22;20438;-92
2023/09/18 18:52:54;;;;;;;6.13;4.23;;;;;;;;;;6351420;22;20431;-91
2023/09/18 18:55:23;;;;;;;6.30;4.13;;;;;;;;;;6354815;22;20410;-90
2023/09/18 18:57:51;;;;;;;5.47;3.97;;;;;;;;;;6351087;22;20439;-91
2023/09/18 19:00:19;;;;;;;6.83;4.90;;;;;;;;;;6351880;22;20407;-91
2023/09/18 19:02:46;;;;;;;5.70;4.37;;;;;;;;;;6352754;22;20543;-91
2023/09/18 19:05:14;;;;;;;7.10;4.57;;;;;;;;;;6352173;22;20896;-91
2023/09/18 19:07:43;;;;;;;4.50;3.63;;;;;;;;;;6351558;22;20416;-91
2023/09/18 19:10:22;;;;;;;6.10;3.70;;;;;;;;;;6352751;22;20396;-92
2023/09/18 19:12:59;;;;;;;4.40;3.73;;;;;;;;;;6358249;22;20410;-92
2023/09/18 19:15:53;;;;;;;6.83;4.27;;;20.60;1.00;;;;;;6367562;22;20434;-90
2023/09/18 19:18:20;;;;;;;7.60;4.10;;;;;;;;;;6362012;22;20437;-89
2023/09/18 19:20:48;;;;;;;5.30;4.70;;;;;;;;;;6356707;22;20394;-91
2023/09/18 19:23:16;;;;;;;4.93;3.87;;;;;;;;;;6366672;22;20432;-91
2023/09/18 19:25:50;;;;;;;4.20;3.00;;;;;;;;;;6367346;22;20399;-91
2023/09/18 19:28:18;;;;;;;5.93;5.30;;;;;;;;;;6366049;22;20385;-91
2023/09/18 19:30:46;;;;;;;6.13;5.03;;;;;;;;;;6358615;22;20421;-89
2023/09/18 19:33:41;;;;;;;10.90;3.73;;;20.60;1.00;;;;;;6354513;22;20507;-91
2023/09/18 19:36:15;;;;;;;5.30;3.80;;;;;;;;;;6311361;22;20441;-91
2023/09/18 19:38:42;;;;;;;6.40;5.00;;;;;;;;;;6361478;22;20447;-92
2023/09/18 19:43:55;;;;;;;22.63;20.27;;;;;;;;;;6353809;22;20402;-92
2023/09/18 19:46:23;;;;;;;8.67;7.47;;;;;;;;;;6354873;22;20405;-91
2023/09/18 19:48:51;;;;;;;6.50;4.90;;;20.60;99.90;;;;;;6357789;22;20413;-91
2023/09/18 19:51:19;;;;;;;7.07;5.60;;;;;;;;;;6363772;22;20379;-91
2023/09/18 19:53:47;;;;;;;25.07;16.20;;;;;;;;;;6364535;22;20421;-91
2023/09/18 19:56:19;;;;;;;8.30;6.33;;;;;;;;;;6363213;22;20410;-90
2023/09/18 19:58:55;;;;;;;7.60;5.70;;;;;;;;;;6368893;22;20434;-90
2023/09/18 20:01:22;;;;;;;4.23;3.83;;;;;;;;;;6367992;22;20386;-90
2023/09/18 20:03:50;;;;;;;3.90;3.53;;;;;;;;;;6358616;22;20778;-90
2023/09/18 20:06:30;;;;;;;7.23;4.53;;;;;;;;;;6357603;22;20418;-91
2023/09/18 20:08:58;;;;;;;4.60;4.20;;;;;;;;;;6362549;22;20387;-91
2023/09/18 20:11:35;;;;;;;8.10;4.47;;;;;;;;;;6368459;22;20469;-92
2023/09/18 20:14:05;;;;;;;5.83;3.63;;;;;;;;;;6368033;22;20367;-90
2023/09/18 20:16:36;;;;;;;4.00;3.40;;;;;;;;;;6358951;22;20399;-91
2023/09/18 20:19:13;;;;;;;4.27;3.87;;;;;;;;;;6358251;22;20433;-90
2023/09/18 20:21:40;;;;;;;5.20;3.80;;;;;;;;;;6353824;22;20483;-90
2023/09/18 20:24:14;;;;;;;6.93;3.90;;;;;;;;;;6352072;22;20731;-90
2023/09/18 20:26:47;;;;;;;4.10;3.70;;;;;;;;;;6355233;22;20387;-91
2023/09/18 20:29:17;;;;;;;6.97;4.83;;;;;;;;;;6355916;22;20418;-91
2023/09/18 20:31:45;;;;;;;5.43;4.03;;;;;;;;;;6354393;22;20430;-91
2023/09/18 20:34:13;;;;;;;4.90;3.90;;;;;;;;;;6357974;22;20432;-92
2023/09/18 20:36:45;;;;;;;6.13;3.80;;;;;;;;;;6353978;22;20433;-91
2023/09/18 20:39:15;;;;;;;6.80;4.53;;;;;;;;;;6359445;22;20438;-91
2023/09/18 20:41:56;;;;;;;3.37;3.07;;;;;;;;;;6366608;22;20435;-91
2023/09/18 20:57:26;;;;;;;12.53;3.63;;;;;;;;;;6354827;22;20426;-92
2023/09/18 21:00:00;;;;;;;4.10;3.70;;;;;;;;;;6368671;22;20400;-93
2023/09/18 21:02:30;;;;;;;3.60;2.60;;;;;;;;;;6361163;22;20448;-91
2023/09/18 21:08:08;;;;;;;4.80;2.80;;;;;;;;;;6295557;22;20405;-91
2023/09/18 21:10:40;;;;;;;4.67;3.00;;;;;;;;;;6297774;22;20369;-93
2023/09/18 21:13:11;;;;;;;3.73;2.93;;;;;;;;;;6368177;22;20406;-91
2023/09/18 21:15:42;;;;;;;4.40;2.70;;;;;;;;;;6363225;22;20379;-91
2023/09/18 21:18:10;;;;;;;3.23;2.27;;;;;;;;;;6353408;22;20434;-92
2023/09/18 21:20:37;;;;;;;4.40;2.57;;;;;;;;;;6352453;22;20564;-90
2023/09/18 21:23:06;;;;;;;2.30;1.97;;;19.50;99.90;;;;;;6349199;22;20740;-91
2023/09/18 21:25:36;;;;;;;4.90;2.17;;;;;;;;;;6349962;22;20706;-89
2023/09/18 21:28:03;;;;;;;5.77;2.97;;;;;;;;;;6349656;22;20408;-90
2023/09/18 21:30:32;;;;;;;5.30;3.37;;;;;;;;;;6356863;22;20395;-89
2023/09/18 21:33:00;;;;;;;7.80;2.80;;;;;;;;;;6368445;22;20456;-90
2023/09/18 21:35:28;;;;;;;5.87;2.73;;;;;;;;;;6362290;22;20853;-90
2023/09/18 21:37:59;;;;;;;2.97;2.73;;;;;;;;;;6354017;22;20436;-89
2023/09/18 21:40:27;;;;;;;7.47;2.53;;;;;;;;;;6357733;22;20411;-91
2023/09/18 21:42:57;;;;;;;8.07;3.03;;;;;;;;;;6360247;22;20477;-91
2023/09/18 21:45:26;;;;;;;3.63;2.43;;;;;;;;;;6368161;22;20383;-91
2023/09/18 21:47:54;;;;;;;5.03;2.90;;;18.10;99.90;;;;;;6367994;22;20469;-91
2023/09/18 21:50:22;;;;;;;3.60;3.10;;;;;;;;;;6365575;22;20415;-90
2023/09/18 21:52:50;;;;;;;3.67;2.63;;;19.10;99.90;;;;;;6351256;22;20452;-91
2023/09/18 21:55:22;;;;;;;3.10;2.80;;;;;;;;;;6357026;22;20402;-89
2023/09/18 21:57:50;;;;;;;3.20;2.70;;;;;;;;;;6354017;22;20864;-91
2023/09/18 22:00:27;;;;;;;2.97;2.77;;;;;;;;;;6348251;22;20403;-91
2023/09/18 22:02:56;;;;;;;5.97;3.53;;;;;;;;;;6349596;22;20483;-91
2023/09/18 22:05:24;;;;;;;10.07;4.00;;;;;;;;;;6349403;22;20722;-91
2023/09/18 22:07:52;;;;;;;3.90;2.80;;;;;;;;;;6353431;22;20391;-90
2023/09/18 22:18:26;;;;;;;3.80;3.10;;;18.90;1.00;;;;;;6062891;23;20404;-93
2023/09/18 22:24:15;;;;;;;4.67;2.60;;;18.90;1.00;;;;;;6317977;22;20439;-92
2023/09/18 23:07:40;;;;;;;5.53;3.13;;;;;;;;;;6361080;22;20418;-94
2023/09/18 23:31:25;;;;;;;5.00;2.97;;;18.40;33.60;;;;;;6229552;23;20893;-92
2023/09/18 23:58:40;;;;;;;3.60;2.90;;;18.20;99.90;;;;;;6320034;22;20429;-93
